sensor_id;sensor_type;location;lat;lon;timestamp;P1;durP1;ratioP1;P2;durP2;ratioP2
8036;SDS011;4061;51.360;7.340;2023-05-19T00:01:11;7.53;;;3.03;;
8036;SDS011;4061;51.360;7.340;2023-05-19T00:03:47;4.47;;;2.37;;
8036;SDS011;4061;51.360;7.340;2023-05-19T00:06:16;3.47;;;2.17;;
8036;SDS011;4061;51.360;7.340;2023-05-19T00:08:47;4.27;;;2.43;;
8036;SDS011;4061;51.360;7.340;2023-05-19T00:11:15;10.83;;;3.13;;
8036;SDS011;4061;51.360;7.340;2023-05-19T00:13:42;11.13;;;3.37;;
8036;SDS011;4061;51.360;7.340;2023-05-19T00:16:15;11.97;;;2.97;;
8036;SDS011;4061;51.360;7.340;2023-05-19T00:18:42;6.60;;;2.50;;
8036;SDS011;4061;51.360;7.340;2023-05-19T00:21:09;7.30;;;2.73;;
8036;SDS011;4061;51.360;7.340;2023-05-19T00:23:36;8.53;;;3.07;;
8036;SDS011;4061;51.360;7.340;2023-05-19T00:26:03;10.03;;;2.23;;
8036;SDS011;4061;51.360;7.340;2023-05-19T00:28:30;5.33;;;2.50;;
8036;SDS011;4061;51.360;7.340;2023-05-19T00:30:58;3.47;;;2.10;;
8036;SDS011;4061;51.360;7.340;2023-05-19T00:33:27;8.30;;;2.47;;
8036;SDS011;4061;51.360;7.340;2023-05-19T00:35:54;13.00;;;2.63;;
8036;SDS011;4061;51.360;7.340;2023-05-19T00:38:21;5.67;;;2.07;;
8036;SDS011;4061;51.360;7.340;2023-05-19T00:40:48;6.23;;;2.10;;
8036;SDS011;4061;51.360;7.340;2023-05-19T00:43:16;3.30;;;2.60;;
8036;SDS011;4061;51.360;7.340;2023-05-19T00:45:43;6.97;;;2.40;;
8036;SDS011;4061;51.360;7.340;2023-05-19T00:48:10;6.20;;;2.53;;
8036;SDS011;4061;51.360;7.340;2023-05-19T00:50:39;5.20;;;2.00;;
8036;SDS011;4061;51.360;7.340;2023-05-19T00:53:07;7.13;;;2.47;;
8036;SDS011;4061;51.360;7.340;2023-05-19T00:55:34;3.13;;;2.33;;
8036;SDS011;4061;51.360;7.340;2023-05-19T00:58:04;3.23;;;2.00;;
8036;SDS011;4061;51.360;7.340;2023-05-19T01:00:31;8.27;;;1.80;;
8036;SDS011;4061;51.360;7.340;2023-05-19T01:03:00;3.37;;;2.20;;
8036;SDS011;4061;51.360;7.340;2023-05-19T01:05:35;10.13;;;2.40;;
8036;SDS011;4061;51.360;7.340;2023-05-19T01:08:03;4.73;;;2.27;;
8036;SDS011;4061;51.360;7.340;2023-05-19T01:10:31;2.63;;;2.03;;
8036;SDS011;4061;51.360;7.340;2023-05-19T01:12:58;3.83;;;2.00;;
8036;SDS011;4061;51.360;7.340;2023-05-19T01:15:25;9.10;;;2.40;;
8036;SDS011;4061;51.360;7.340;2023-05-19T01:17:54;11.37;;;2.40;;
8036;SDS011;4061;51.360;7.340;2023-05-19T01:20:26;7.37;;;2.30;;
8036;SDS011;4061;51.360;7.340;2023-05-19T01:23:08;8.17;;;2.10;;
8036;SDS011;4061;51.360;7.340;2023-05-19T01:25:50;4.07;;;2.87;;
8036;SDS011;4061;51.360;7.340;2023-05-19T01:31:09;5.83;;;2.70;;
8036;SDS011;4061;51.360;7.340;2023-05-19T01:33:36;7.73;;;2.47;;
8036;SDS011;4061;51.360;7.340;2023-05-19T01:36:05;21.03;;;4.60;;
8036;SDS011;4061;51.360;7.340;2023-05-19T01:38:33;11.30;;;3.13;;
8036;SDS011;4061;51.360;7.340;2023-05-19T01:41:01;4.53;;;2.67;;
8036;SDS011;4061;51.360;7.340;2023-05-19T01:43:29;5.33;;;3.17;;
8036;SDS011;4061;51.360;7.340;2023-05-19T01:45:56;6.40;;;3.33;;
8036;SDS011;4061;51.360;7.340;2023-05-19T01:48:25;8.03;;;2.57;;
8036;SDS011;4061;51.360;7.340;2023-05-19T01:50:52;8.17;;;3.00;;
8036;SDS011;4061;51.360;7.340;2023-05-19T01:53:21;6.77;;;2.87;;
8036;SDS011;4061;51.360;7.340;2023-05-19T01:55:49;9.60;;;3.37;;
8036;SDS011;4061;51.360;7.340;2023-05-19T01:58:17;7.00;;;3.27;;
8036;SDS011;4061;51.360;7.340;2023-05-19T02:00:50;8.93;;;3.43;;
8036;SDS011;4061;51.360;7.340;2023-05-19T02:03:29;4.47;;;2.97;;
8036;SDS011;4061;51.360;7.340;2023-05-19T02:06:00;9.90;;;3.50;;
8036;SDS011;4061;51.360;7.340;2023-05-19T02:08:29;5.07;;;2.93;;
8036;SDS011;4061;51.360;7.340;2023-05-19T02:10:59;4.23;;;2.73;;
8036;SDS011;4061;51.360;7.340;2023-05-19T02:13:28;4.57;;;3.07;;
8036;SDS011;4061;51.360;7.340;2023-05-19T02:15:57;5.70;;;2.80;;
8036;SDS011;4061;51.360;7.340;2023-05-19T02:18:27;7.43;;;3.27;;
8036;SDS011;4061;51.360;7.340;2023-05-19T02:20:54;5.00;;;3.20;;
8036;SDS011;4061;51.360;7.340;2023-05-19T02:23:21;7.87;;;3.10;;
8036;SDS011;4061;51.360;7.340;2023-05-19T02:25:48;5.60;;;2.83;;
8036;SDS011;4061;51.360;7.340;2023-05-19T02:28:15;10.13;;;3.20;;
8036;SDS011;4061;51.360;7.340;2023-05-19T02:30:43;9.30;;;3.30;;
8036;SDS011;4061;51.360;7.340;2023-05-19T02:33:10;4.23;;;2.83;;
8036;SDS011;4061;51.360;7.340;2023-05-19T02:35:38;4.37;;;2.77;;
8036;SDS011;4061;51.360;7.340;2023-05-19T02:38:05;5.73;;;2.60;;
8036;SDS011;4061;51.360;7.340;2023-05-19T02:40:33;3.33;;;2.53;;
8036;SDS011;4061;51.360;7.340;2023-05-19T02:43:00;6.90;;;2.77;;
8036;SDS011;4061;51.360;7.340;2023-05-19T02:45:27;7.23;;;3.20;;
8036;SDS011;4061;51.360;7.340;2023-05-19T02:47:54;9.80;;;3.00;;
8036;SDS011;4061;51.360;7.340;2023-05-19T02:50:21;10.17;;;2.90;;
8036;SDS011;4061;51.360;7.340;2023-05-19T02:52:50;7.63;;;3.57;;
8036;SDS011;4061;51.360;7.340;2023-05-19T02:55:18;5.73;;;3.53;;
8036;SDS011;4061;51.360;7.340;2023-05-19T02:57:45;6.97;;;2.90;;
8036;SDS011;4061;51.360;7.340;2023-05-19T03:00:12;4.13;;;3.37;;
8036;SDS011;4061;51.360;7.340;2023-05-19T03:02:40;8.63;;;2.87;;
8036;SDS011;4061;51.360;7.340;2023-05-19T03:05:08;5.30;;;3.13;;
8036;SDS011;4061;51.360;7.340;2023-05-19T03:07:35;14.03;;;3.43;;
8036;SDS011;4061;51.360;7.340;2023-05-19T03:10:04;8.17;;;4.00;;
8036;SDS011;4061;51.360;7.340;2023-05-19T03:12:32;5.50;;;3.17;;
8036;SDS011;4061;51.360;7.340;2023-05-19T03:14:59;8.90;;;3.30;;
8036;SDS011;4061;51.360;7.340;2023-05-19T03:17:26;6.80;;;3.97;;
8036;SDS011;4061;51.360;7.340;2023-05-19T03:19:57;7.93;;;3.77;;
8036;SDS011;4061;51.360;7.340;2023-05-19T03:22:25;13.63;;;4.77;;
8036;SDS011;4061;51.360;7.340;2023-05-19T03:24:52;13.30;;;4.27;;
8036;SDS011;4061;51.360;7.340;2023-05-19T03:27:21;10.90;;;4.47;;
8036;SDS011;4061;51.360;7.340;2023-05-19T03:29:48;7.50;;;3.83;;
8036;SDS011;4061;51.360;7.340;2023-05-19T03:32:16;9.70;;;4.17;;
8036;SDS011;4061;51.360;7.340;2023-05-19T03:34:44;13.53;;;4.50;;
8036;SDS011;4061;51.360;7.340;2023-05-19T03:37:11;7.27;;;3.87;;
8036;SDS011;4061;51.360;7.340;2023-05-19T03:39:38;7.80;;;3.93;;
8036;SDS011;4061;51.360;7.340;2023-05-19T03:42:05;10.47;;;4.40;;
8036;SDS011;4061;51.360;7.340;2023-05-19T03:44:34;8.43;;;4.80;;
8036;SDS011;4061;51.360;7.340;2023-05-19T03:47:01;11.67;;;4.20;;
8036;SDS011;4061;51.360;7.340;2023-05-19T03:49:28;13.77;;;4.33;;
8036;SDS011;4061;51.360;7.340;2023-05-19T03:51:55;7.70;;;4.30;;
8036;SDS011;4061;51.360;7.340;2023-05-19T03:54:23;4.63;;;4.03;;
8036;SDS011;4061;51.360;7.340;2023-05-19T03:56:50;7.37;;;3.40;;
8036;SDS011;4061;51.360;7.340;2023-05-19T03:59:17;8.10;;;3.47;;
8036;SDS011;4061;51.360;7.340;2023-05-19T04:01:45;7.27;;;4.10;;
8036;SDS011;4061;51.360;7.340;2023-05-19T04:04:13;9.30;;;2.70;;
8036;SDS011;4061;51.360;7.340;2023-05-19T04:06:40;4.93;;;3.30;;
8036;SDS011;4061;51.360;7.340;2023-05-19T04:09:10;12.00;;;3.70;;
8036;SDS011;4061;51.360;7.340;2023-05-19T04:11:38;4.10;;;2.03;;
8036;SDS011;4061;51.360;7.340;2023-05-19T04:14:05;6.17;;;1.87;;
8036;SDS011;4061;51.360;7.340;2023-05-19T04:16:32;4.38;;;2.03;;
8036;SDS011;4061;51.360;7.340;2023-05-19T04:19:01;7.90;;;1.95;;
8036;SDS011;4061;51.360;7.340;2023-05-19T04:21:28;5.65;;;2.28;;
8036;SDS011;4061;51.360;7.340;2023-05-19T04:23:55;4.95;;;2.38;;
8036;SDS011;4061;51.360;7.340;2023-05-19T04:26:24;7.22;;;2.78;;
8036;SDS011;4061;51.360;7.340;2023-05-19T04:28:54;3.08;;;1.90;;
8036;SDS011;4061;51.360;7.340;2023-05-19T04:31:21;3.70;;;1.73;;
8036;SDS011;4061;51.360;7.340;2023-05-19T04:33:49;8.93;;;2.60;;
8036;SDS011;4061;51.360;7.340;2023-05-19T04:36:18;14.85;;;2.78;;
8036;SDS011;4061;51.360;7.340;2023-05-19T04:38:46;2.60;;;2.05;;
8036;SDS011;4061;51.360;7.340;2023-05-19T04:41:13;7.07;;;2.00;;
8036;SDS011;4061;51.360;7.340;2023-05-19T04:43:41;2.38;;;1.75;;
8036;SDS011;4061;51.360;7.340;2023-05-19T04:46:08;6.05;;;2.15;;
8036;SDS011;4061;51.360;7.340;2023-05-19T04:48:36;7.57;;;2.92;;
8036;SDS011;4061;51.360;7.340;2023-05-19T04:51:04;5.10;;;2.15;;
8036;SDS011;4061;51.360;7.340;2023-05-19T04:53:32;2.55;;;1.95;;
8036;SDS011;4061;51.360;7.340;2023-05-19T04:56:00;9.95;;;2.53;;
8036;SDS011;4061;51.360;7.340;2023-05-19T04:58:27;9.00;;;3.13;;
8036;SDS011;4061;51.360;7.340;2023-05-19T05:00:55;4.65;;;1.75;;
8036;SDS011;4061;51.360;7.340;2023-05-19T05:03:22;5.93;;;2.20;;
8036;SDS011;4061;51.360;7.340;2023-05-19T05:05:50;4.53;;;2.28;;
8036;SDS011;4061;51.360;7.340;2023-05-19T05:08:17;6.10;;;2.20;;
8036;SDS011;4061;51.360;7.340;2023-05-19T05:10:49;6.05;;;1.90;;
8036;SDS011;4061;51.360;7.340;2023-05-19T05:13:16;4.13;;;1.63;;
8036;SDS011;4061;51.360;7.340;2023-05-19T05:15:44;3.28;;;1.80;;
8036;SDS011;4061;51.360;7.340;2023-05-19T05:18:11;5.22;;;1.70;;
8036;SDS011;4061;51.360;7.340;2023-05-19T05:20:39;4.28;;;2.20;;
8036;SDS011;4061;51.360;7.340;2023-05-19T05:23:07;5.32;;;2.50;;
8036;SDS011;4061;51.360;7.340;2023-05-19T05:25:34;7.72;;;2.17;;
8036;SDS011;4061;51.360;7.340;2023-05-19T05:28:03;6.45;;;2.25;;
8036;SDS011;4061;51.360;7.340;2023-05-19T05:30:32;5.13;;;2.05;;
8036;SDS011;4061;51.360;7.340;2023-05-19T05:32:59;4.95;;;2.08;;
8036;SDS011;4061;51.360;7.340;2023-05-19T05:35:26;4.95;;;2.42;;
8036;SDS011;4061;51.360;7.340;2023-05-19T05:37:53;6.60;;;2.00;;
8036;SDS011;4061;51.360;7.340;2023-05-19T05:40:21;2.53;;;2.15;;
8036;SDS011;4061;51.360;7.340;2023-05-19T05:42:48;8.48;;;2.20;;
8036;SDS011;4061;51.360;7.340;2023-05-19T05:45:16;3.28;;;1.90;;
8036;SDS011;4061;51.360;7.340;2023-05-19T05:47:44;5.70;;;1.80;;
8036;SDS011;4061;51.360;7.340;2023-05-19T05:50:12;4.88;;;2.10;;
8036;SDS011;4061;51.360;7.340;2023-05-19T05:52:39;5.68;;;2.00;;
8036;SDS011;4061;51.360;7.340;2023-05-19T05:55:07;6.57;;;1.83;;
8036;SDS011;4061;51.360;7.340;2023-05-19T05:57:35;3.20;;;2.13;;
8036;SDS011;4061;51.360;7.340;2023-05-19T06:00:02;5.43;;;1.75;;
8036;SDS011;4061;51.360;7.340;2023-05-19T06:02:32;4.18;;;1.70;;
8036;SDS011;4061;51.360;7.340;2023-05-19T06:05:00;2.53;;;1.48;;
8036;SDS011;4061;51.360;7.340;2023-05-19T06:07:27;3.78;;;1.40;;
8036;SDS011;4061;51.360;7.340;2023-05-19T06:09:55;4.53;;;1.65;;
8036;SDS011;4061;51.360;7.340;2023-05-19T06:12:22;4.57;;;1.60;;
8036;SDS011;4061;51.360;7.340;2023-05-19T06:14:50;1.60;;;1.50;;
8036;SDS011;4061;51.360;7.340;2023-05-19T06:17:17;2.97;;;1.58;;
8036;SDS011;4061;51.360;7.340;2023-05-19T06:19:46;9.73;;;1.70;;
8036;SDS011;4061;51.360;7.340;2023-05-19T06:22:13;5.32;;;1.50;;
8036;SDS011;4061;51.360;7.340;2023-05-19T06:24:40;3.75;;;1.63;;
8036;SDS011;4061;51.360;7.340;2023-05-19T06:27:07;6.18;;;1.52;;
8036;SDS011;4061;51.360;7.340;2023-05-19T06:29:35;3.88;;;1.70;;
8036;SDS011;4061;51.360;7.340;2023-05-19T06:32:02;3.80;;;1.55;;
8036;SDS011;4061;51.360;7.340;2023-05-19T06:34:29;3.30;;;1.55;;
8036;SDS011;4061;51.360;7.340;2023-05-19T06:36:58;2.33;;;1.55;;
8036;SDS011;4061;51.360;7.340;2023-05-19T06:39:26;7.60;;;1.85;;
8036;SDS011;4061;51.360;7.340;2023-05-19T06:41:53;4.85;;;1.58;;
8036;SDS011;4061;51.360;7.340;2023-05-19T06:44:21;2.72;;;1.73;;
8036;SDS011;4061;51.360;7.340;2023-05-19T06:46:48;4.03;;;1.65;;
8036;SDS011;4061;51.360;7.340;2023-05-19T06:49:15;5.32;;;1.90;;
8036;SDS011;4061;51.360;7.340;2023-05-19T06:51:43;5.68;;;1.70;;
8036;SDS011;4061;51.360;7.340;2023-05-19T06:54:13;3.60;;;1.50;;
8036;SDS011;4061;51.360;7.340;2023-05-19T06:56:40;5.30;;;1.88;;
8036;SDS011;4061;51.360;7.340;2023-05-19T06:59:08;6.70;;;1.60;;
8036;SDS011;4061;51.360;7.340;2023-05-19T07:01:35;5.60;;;1.98;;
8036;SDS011;4061;51.360;7.340;2023-05-19T07:04:02;5.50;;;2.03;;
8036;SDS011;4061;51.360;7.340;2023-05-19T07:06:30;5.00;;;1.85;;
8036;SDS011;4061;51.360;7.340;2023-05-19T07:08:57;3.30;;;1.33;;
8036;SDS011;4061;51.360;7.340;2023-05-19T07:11:26;2.17;;;1.65;;
8036;SDS011;4061;51.360;7.340;2023-05-19T07:13:53;4.03;;;1.60;;
8036;SDS011;4061;51.360;7.340;2023-05-19T07:16:20;3.72;;;1.33;;
8036;SDS011;4061;51.360;7.340;2023-05-19T07:18:47;3.65;;;1.65;;
8036;SDS011;4061;51.360;7.340;2023-05-19T07:21:15;8.45;;;1.80;;
8036;SDS011;4061;51.360;7.340;2023-05-19T07:23:42;2.28;;;1.23;;
8036;SDS011;4061;51.360;7.340;2023-05-19T07:26:09;5.47;;;1.65;;
8036;SDS011;4061;51.360;7.340;2023-05-19T07:28:37;2.97;;;1.48;;
8036;SDS011;4061;51.360;7.340;2023-05-19T07:31:06;2.95;;;1.17;;
8036;SDS011;4061;51.360;7.340;2023-05-19T07:33:33;1.90;;;1.25;;
8036;SDS011;4061;51.360;7.340;2023-05-19T07:36:00;5.78;;;1.30;;
8036;SDS011;4061;51.360;7.340;2023-05-19T07:38:28;2.17;;;0.80;;
8036;SDS011;4061;51.360;7.340;2023-05-19T07:40:58;8.90;;;1.25;;
8036;SDS011;4061;51.360;7.340;2023-05-19T07:43:25;1.23;;;0.90;;
8036;SDS011;4061;51.360;7.340;2023-05-19T07:45:54;4.45;;;1.13;;
8036;SDS011;4061;51.360;7.340;2023-05-19T07:48:21;0.95;;;0.90;;
8036;SDS011;4061;51.360;7.340;2023-05-19T07:50:49;2.92;;;1.20;;
8036;SDS011;4061;51.360;7.340;2023-05-19T07:53:17;1.50;;;0.77;;
8036;SDS011;4061;51.360;7.340;2023-05-19T07:55:44;5.20;;;1.40;;
8036;SDS011;4061;51.360;7.340;2023-05-19T07:58:12;4.53;;;1.02;;
8036;SDS011;4061;51.360;7.340;2023-05-19T08:00:39;6.97;;;1.38;;
8036;SDS011;4061;51.360;7.340;2023-05-19T08:03:08;3.58;;;1.10;;
8036;SDS011;4061;51.360;7.340;2023-05-19T08:05:35;5.82;;;1.33;;
8036;SDS011;4061;51.360;7.340;2023-05-19T08:08:03;4.82;;;1.33;;
8036;SDS011;4061;51.360;7.340;2023-05-19T08:10:30;2.75;;;0.93;;
8036;SDS011;4061;51.360;7.340;2023-05-19T08:12:57;6.40;;;1.23;;
8036;SDS011;4061;51.360;7.340;2023-05-19T08:15:24;6.38;;;1.17;;
8036;SDS011;4061;51.360;7.340;2023-05-19T08:17:51;5.97;;;1.05;;
8036;SDS011;4061;51.360;7.340;2023-05-19T08:20:20;2.25;;;1.00;;
8036;SDS011;4061;51.360;7.340;2023-05-19T08:22:48;4.13;;;1.17;;
8036;SDS011;4061;51.360;7.340;2023-05-19T08:25:15;2.15;;;1.17;;
8036;SDS011;4061;51.360;7.340;2023-05-19T08:27:43;4.65;;;0.98;;
8036;SDS011;4061;51.360;7.340;2023-05-19T08:30:11;3.20;;;1.00;;
8036;SDS011;4061;51.360;7.340;2023-05-19T08:32:38;2.65;;;0.90;;
8036;SDS011;4061;51.360;7.340;2023-05-19T08:35:06;3.17;;;1.10;;
8036;SDS011;4061;51.360;7.340;2023-05-19T08:37:34;1.80;;;0.77;;
8036;SDS011;4061;51.360;7.340;2023-05-19T08:40:02;6.25;;;1.48;;
8036;SDS011;4061;51.360;7.340;2023-05-19T08:42:30;1.30;;;0.75;;
8036;SDS011;4061;51.360;7.340;2023-05-19T08:44:58;4.90;;;0.90;;
8036;SDS011;4061;51.360;7.340;2023-05-19T08:47:25;3.03;;;1.13;;
8036;SDS011;4061;51.360;7.340;2023-05-19T08:49:53;2.83;;;1.20;;
8036;SDS011;4061;51.360;7.340;2023-05-19T08:52:26;3.13;;;1.42;;
8036;SDS011;4061;51.360;7.340;2023-05-19T08:54:59;5.38;;;0.95;;
8036;SDS011;4061;51.360;7.340;2023-05-19T08:57:29;1.95;;;0.90;;
8036;SDS011;4061;51.360;7.340;2023-05-19T08:59:58;4.85;;;1.02;;
8036;SDS011;4061;51.360;7.340;2023-05-19T09:02:25;2.33;;;0.88;;
8036;SDS011;4061;51.360;7.340;2023-05-19T09:04:53;6.13;;;1.40;;
8036;SDS011;4061;51.360;7.340;2023-05-19T09:07:21;2.63;;;1.23;;
8036;SDS011;4061;51.360;7.340;2023-05-19T09:09:49;4.18;;;0.90;;
8036;SDS011;4061;51.360;7.340;2023-05-19T09:12:18;1.60;;;1.00;;
8036;SDS011;4061;51.360;7.340;2023-05-19T09:14:46;1.73;;;0.63;;
8036;SDS011;4061;51.360;7.340;2023-05-19T09:17:13;2.38;;;1.00;;
8036;SDS011;4061;51.360;7.340;2023-05-19T09:19:41;6.75;;;1.17;;
8036;SDS011;4061;51.360;7.340;2023-05-19T09:22:09;1.98;;;1.00;;
8036;SDS011;4061;51.360;7.340;2023-05-19T09:24:36;3.70;;;0.80;;
8036;SDS011;4061;51.360;7.340;2023-05-19T09:27:05;5.82;;;0.98;;
8036;SDS011;4061;51.360;7.340;2023-05-19T09:29:33;3.35;;;0.88;;
8036;SDS011;4061;51.360;7.340;2023-05-19T09:32:01;2.85;;;0.75;;
8036;SDS011;4061;51.360;7.340;2023-05-19T09:34:29;6.95;;;0.90;;
8036;SDS011;4061;51.360;7.340;2023-05-19T09:36:56;3.15;;;0.70;;
8036;SDS011;4061;51.360;7.340;2023-05-19T09:39:24;2.72;;;0.70;;
8036;SDS011;4061;51.360;7.340;2023-05-19T09:41:53;2.00;;;0.77;;
8036;SDS011;4061;51.360;7.340;2023-05-19T09:44:22;2.42;;;0.60;;
8036;SDS011;4061;51.360;7.340;2023-05-19T09:46:54;5.88;;;1.20;;
8036;SDS011;4061;51.360;7.340;2023-05-19T09:49:22;2.78;;;1.00;;
8036;SDS011;4061;51.360;7.340;2023-05-19T09:51:49;2.70;;;0.88;;
8036;SDS011;4061;51.360;7.340;2023-05-19T09:54:17;6.10;;;1.55;;
8036;SDS011;4061;51.360;7.340;2023-05-19T09:56:49;3.08;;;0.70;;
8036;SDS011;4061;51.360;7.340;2023-05-19T09:59:17;2.78;;;1.27;;
8036;SDS011;4061;51.360;7.340;2023-05-19T10:01:45;5.60;;;1.20;;
8036;SDS011;4061;51.360;7.340;2023-05-19T10:04:13;3.45;;;0.82;;
8036;SDS011;4061;51.360;7.340;2023-05-19T10:06:41;3.22;;;0.98;;
8036;SDS011;4061;51.360;7.340;2023-05-19T10:09:10;3.35;;;1.10;;
8036;SDS011;4061;51.360;7.340;2023-05-19T10:11:37;7.80;;;1.20;;
8036;SDS011;4061;51.360;7.340;2023-05-19T10:14:04;1.92;;;0.95;;
8036;SDS011;4061;51.360;7.340;2023-05-19T10:16:32;2.28;;;0.68;;
8036;SDS011;4061;51.360;7.340;2023-05-19T10:19:00;2.00;;;1.27;;
8036;SDS011;4061;51.360;7.340;2023-05-19T10:21:29;2.50;;;0.90;;
8036;SDS011;4061;51.360;7.340;2023-05-19T10:23:57;2.00;;;0.82;;
8036;SDS011;4061;51.360;7.340;2023-05-19T10:26:24;2.47;;;0.82;;
8036;SDS011;4061;51.360;7.340;2023-05-19T10:28:51;3.63;;;0.98;;
8036;SDS011;4061;51.360;7.340;2023-05-19T10:31:18;4.55;;;0.98;;
8036;SDS011;4061;51.360;7.340;2023-05-19T10:33:54;2.80;;;0.65;;
8036;SDS011;4061;51.360;7.340;2023-05-19T10:36:25;5.95;;;0.80;;
8036;SDS011;4061;51.360;7.340;2023-05-19T10:38:59;1.77;;;0.95;;
8036;SDS011;4061;51.360;7.340;2023-05-19T10:41:32;2.72;;;1.15;;
8036;SDS011;4061;51.360;7.340;2023-05-19T10:44:05;1.55;;;0.80;;
8036;SDS011;4061;51.360;7.340;2023-05-19T10:46:33;3.97;;;0.80;;
8036;SDS011;4061;51.360;7.340;2023-05-19T10:49:01;2.65;;;1.05;;
8036;SDS011;4061;51.360;7.340;2023-05-19T10:51:29;6.75;;;1.23;;
8036;SDS011;4061;51.360;7.340;2023-05-19T10:53:56;3.28;;;1.08;;
8036;SDS011;4061;51.360;7.340;2023-05-19T10:56:28;3.20;;;0.80;;
8036;SDS011;4061;51.360;7.340;2023-05-19T10:58:57;2.03;;;0.73;;
8036;SDS011;4061;51.360;7.340;2023-05-19T11:01:28;0.80;;;0.75;;
8036;SDS011;4061;51.360;7.340;2023-05-19T11:03:56;2.85;;;1.10;;
8036;SDS011;4061;51.360;7.340;2023-05-19T11:06:30;3.45;;;0.80;;
8036;SDS011;4061;51.360;7.340;2023-05-19T11:08:58;6.03;;;0.85;;
8036;SDS011;4061;51.360;7.340;2023-05-19T11:11:26;3.13;;;0.70;;
8036;SDS011;4061;51.360;7.340;2023-05-19T11:14:09;1.92;;;0.80;;
8036;SDS011;4061;51.360;7.340;2023-05-19T11:16:38;1.92;;;0.80;;
8036;SDS011;4061;51.360;7.340;2023-05-19T11:19:07;2.17;;;1.02;;
8036;SDS011;4061;51.360;7.340;2023-05-19T11:21:41;2.22;;;0.90;;
8036;SDS011;4061;51.360;7.340;2023-05-19T11:24:08;1.73;;;1.00;;
8036;SDS011;4061;51.360;7.340;2023-05-19T11:26:39;1.65;;;0.50;;
8036;SDS011;4061;51.360;7.340;2023-05-19T11:29:07;4.53;;;0.82;;
8036;SDS011;4061;51.360;7.340;2023-05-19T11:31:36;3.75;;;1.10;;
8036;SDS011;4061;51.360;7.340;2023-05-19T11:34:03;1.55;;;0.75;;
8036;SDS011;4061;51.360;7.340;2023-05-19T11:36:31;3.15;;;0.80;;
8036;SDS011;4061;51.360;7.340;2023-05-19T11:39:00;4.15;;;0.85;;
8036;SDS011;4061;51.360;7.340;2023-05-19T11:41:27;3.17;;;1.02;;
8036;SDS011;4061;51.360;7.340;2023-05-19T11:43:55;2.47;;;1.10;;
8036;SDS011;4061;51.360;7.340;2023-05-19T11:46:22;4.93;;;0.90;;
8036;SDS011;4061;51.360;7.340;2023-05-19T11:48:51;3.15;;;1.30;;
8036;SDS011;4061;51.360;7.340;2023-05-19T11:51:20;3.38;;;0.90;;
8036;SDS011;4061;51.360;7.340;2023-05-19T11:53:48;2.28;;;0.70;;
8036;SDS011;4061;51.360;7.340;2023-05-19T11:56:15;2.45;;;0.90;;
8036;SDS011;4061;51.360;7.340;2023-05-19T11:58:42;4.60;;;1.10;;
8036;SDS011;4061;51.360;7.340;2023-05-19T12:01:09;6.15;;;1.08;;
8036;SDS011;4061;51.360;7.340;2023-05-19T12:03:37;2.85;;;1.02;;
8036;SDS011;4061;51.360;7.340;2023-05-19T12:06:06;3.97;;;1.13;;
8036;SDS011;4061;51.360;7.340;2023-05-19T12:08:33;1.77;;;0.95;;
8036;SDS011;4061;51.360;7.340;2023-05-19T12:11:02;3.08;;;1.25;;
8036;SDS011;4061;51.360;7.340;2023-05-19T12:13:29;3.33;;;1.00;;
8036;SDS011;4061;51.360;7.340;2023-05-19T12:15:58;4.30;;;0.95;;
8036;SDS011;4061;51.360;7.340;2023-05-19T12:18:27;3.03;;;0.90;;
8036;SDS011;4061;51.360;7.340;2023-05-19T12:20:55;4.82;;;1.08;;
8036;SDS011;4061;51.360;7.340;2023-05-19T12:23:24;2.60;;;0.70;;
8036;SDS011;4061;51.360;7.340;2023-05-19T12:25:54;3.85;;;1.23;;
8036;SDS011;4061;51.360;7.340;2023-05-19T12:28:22;3.00;;;0.85;;
8036;SDS011;4061;51.360;7.340;2023-05-19T12:30:49;2.92;;;0.70;;
8036;SDS011;4061;51.360;7.340;2023-05-19T12:33:16;7.30;;;0.98;;
8036;SDS011;4061;51.360;7.340;2023-05-19T12:35:44;2.40;;;0.75;;
8036;SDS011;4061;51.360;7.340;2023-05-19T12:38:14;2.03;;;0.75;;
8036;SDS011;4061;51.360;7.340;2023-05-19T12:40:42;4.60;;;0.88;;
8036;SDS011;4061;51.360;7.340;2023-05-19T12:43:17;2.45;;;0.90;;
8036;SDS011;4061;51.360;7.340;2023-05-19T12:45:45;3.58;;;1.05;;
8036;SDS011;4061;51.360;7.340;2023-05-19T12:48:12;2.28;;;0.80;;
8036;SDS011;4061;51.360;7.340;2023-05-19T12:50:40;0.75;;;0.75;;
8036;SDS011;4061;51.360;7.340;2023-05-19T12:53:08;3.17;;;1.10;;
8036;SDS011;4061;51.360;7.340;2023-05-19T12:55:37;4.32;;;0.77;;
8036;SDS011;4061;51.360;7.340;2023-05-19T12:58:07;5.20;;;1.30;;
8036;SDS011;4061;51.360;7.340;2023-05-19T13:00:39;1.35;;;0.73;;
8036;SDS011;4061;51.360;7.340;2023-05-19T13:03:08;1.83;;;0.80;;
8036;SDS011;4061;51.360;7.340;2023-05-19T13:05:40;2.28;;;1.10;;
8036;SDS011;4061;51.360;7.340;2023-05-19T13:08:08;1.15;;;0.70;;
8036;SDS011;4061;51.360;7.340;2023-05-19T13:10:36;1.80;;;0.60;;
8036;SDS011;4061;51.360;7.340;2023-05-19T13:13:03;5.28;;;1.30;;
8036;SDS011;4061;51.360;7.340;2023-05-19T13:15:32;1.85;;;0.50;;
8036;SDS011;4061;51.360;7.340;2023-05-19T13:18:00;1.83;;;0.52;;
8036;SDS011;4061;51.360;7.340;2023-05-19T13:20:28;2.88;;;0.70;;
8036;SDS011;4061;51.360;7.340;2023-05-19T13:22:55;2.92;;;0.68;;
8036;SDS011;4061;51.360;7.340;2023-05-19T13:25:22;1.38;;;0.70;;
8036;SDS011;4061;51.360;7.340;2023-05-19T13:27:50;6.82;;;1.05;;
8036;SDS011;4061;51.360;7.340;2023-05-19T13:30:18;3.03;;;0.80;;
8036;SDS011;4061;51.360;7.340;2023-05-19T13:32:47;4.57;;;0.50;;
8036;SDS011;4061;51.360;7.340;2023-05-19T13:35:16;1.52;;;1.02;;
8036;SDS011;4061;51.360;7.340;2023-05-19T13:37:43;3.60;;;0.90;;
8036;SDS011;4061;51.360;7.340;2023-05-19T13:40:10;0.60;;;0.60;;
8036;SDS011;4061;51.360;7.340;2023-05-19T13:42:38;1.55;;;0.88;;
8036;SDS011;4061;51.360;7.340;2023-05-19T13:45:06;2.30;;;0.68;;
8036;SDS011;4061;51.360;7.340;2023-05-19T13:47:33;1.30;;;0.90;;
8036;SDS011;4061;51.360;7.340;2023-05-19T13:50:03;2.78;;;0.80;;
8036;SDS011;4061;51.360;7.340;2023-05-19T13:52:30;2.08;;;0.90;;
8036;SDS011;4061;51.360;7.340;2023-05-19T13:54:57;4.30;;;0.80;;
8036;SDS011;4061;51.360;7.340;2023-05-19T13:57:24;2.25;;;0.82;;
8036;SDS011;4061;51.360;7.340;2023-05-19T13:59:52;2.75;;;0.60;;
8036;SDS011;4061;51.360;7.340;2023-05-19T14:02:19;2.47;;;0.85;;
8036;SDS011;4061;51.360;7.340;2023-05-19T14:04:46;3.63;;;0.88;;
8036;SDS011;4061;51.360;7.340;2023-05-19T14:07:16;1.65;;;0.50;;
8036;SDS011;4061;51.360;7.340;2023-05-19T14:09:43;0.60;;;0.60;;
8036;SDS011;4061;51.360;7.340;2023-05-19T14:12:11;2.28;;;0.70;;
8036;SDS011;4061;51.360;7.340;2023-05-19T14:14:38;1.73;;;0.70;;
8036;SDS011;4061;51.360;7.340;2023-05-19T14:17:05;3.90;;;0.90;;
8036;SDS011;4061;51.360;7.340;2023-05-19T14:19:32;2.05;;;0.77;;
8036;SDS011;4061;51.360;7.340;2023-05-19T14:21:59;3.10;;;0.73;;
8036;SDS011;4061;51.360;7.340;2023-05-19T14:24:28;3.65;;;0.90;;
8036;SDS011;4061;51.360;7.340;2023-05-19T14:26:55;5.60;;;0.80;;
8036;SDS011;4061;51.360;7.340;2023-05-19T14:29:22;0.52;;;0.52;;
8036;SDS011;4061;51.360;7.340;2023-05-19T14:31:49;1.92;;;0.60;;
8036;SDS011;4061;51.360;7.340;2023-05-19T14:34:17;1.90;;;1.02;;
8036;SDS011;4061;51.360;7.340;2023-05-19T14:36:45;2.63;;;0.90;;
8036;SDS011;4061;51.360;7.340;2023-05-19T14:39:12;1.42;;;0.60;;
8036;SDS011;4061;51.360;7.340;2023-05-19T14:41:41;3.65;;;0.75;;
8036;SDS011;4061;51.360;7.340;2023-05-19T14:44:08;8.15;;;0.70;;
8036;SDS011;4061;51.360;7.340;2023-05-19T14:46:35;1.23;;;0.85;;
8036;SDS011;4061;51.360;7.340;2023-05-19T14:49:02;3.65;;;0.80;;
8036;SDS011;4061;51.360;7.340;2023-05-19T14:51:30;1.00;;;0.90;;
8036;SDS011;4061;51.360;7.340;2023-05-19T14:53:58;1.73;;;0.80;;
8036;SDS011;4061;51.360;7.340;2023-05-19T14:56:26;0.90;;;0.63;;
8036;SDS011;4061;51.360;7.340;2023-05-19T14:58:54;3.03;;;0.80;;
8036;SDS011;4061;51.360;7.340;2023-05-19T15:01:22;4.18;;;0.70;;
8036;SDS011;4061;51.360;7.340;2023-05-19T15:03:49;1.55;;;0.60;;
8036;SDS011;4061;51.360;7.340;2023-05-19T15:06:16;2.35;;;0.60;;
8036;SDS011;4061;51.360;7.340;2023-05-19T15:08:43;2.22;;;0.80;;
8036;SDS011;4061;51.360;7.340;2023-05-19T15:11:10;0.45;;;0.45;;
8036;SDS011;4061;51.360;7.340;2023-05-19T15:13:38;5.00;;;0.70;;
8036;SDS011;4061;51.360;7.340;2023-05-19T15:16:06;1.92;;;0.80;;
8036;SDS011;4061;51.360;7.340;2023-05-19T15:18:34;0.70;;;0.70;;
8036;SDS011;4061;51.360;7.340;2023-05-19T15:21:01;0.80;;;0.80;;
8036;SDS011;4061;51.360;7.340;2023-05-19T15:23:29;2.20;;;0.70;;